Gujrat Weather



Gujrat's Current Weather

Temprature 29o smoke

smoke

Rain: 0 %

Min Temprature29o
Max Temprature29o
Humidity66
Wind Speed3.1 m/h
Sun Rise05:32:29
Sun Set18:40:56
Current Time: 23-Aug-2019 05:36:11
Lat/Lon: 32.57, 74.07




Gujrat's Geo Location



Gujrat's Weather Forecast

Time Overall Temp Min Temp Max Temp Humidity Wind Speed Rain
23-Aug-2019 (Fri)
08:00:00 clear sky 32.140 30.257 32.140 60 2.28 m/h 0 %
11:00:00 clear sky 37.460 36.050 37.460 40 1.38 m/h 0 %
14:00:00 clear sky 39.570 38.631 39.570 30 1.86 m/h 0 %
17:00:00 clear sky 39.280 38.811 39.280 27 2.57 m/h 0 %
20:00:00 clear sky 32.450 32.450 32.450 42 2.79 m/h 0 %
23:00:00 clear sky 30.242 30.242 30.242 52 2.21 m/h 0 %
24-Aug-2019 (Sat)
02:00:00 clear sky 28.431 28.431 28.431 58 2.46 m/h 0 %
05:00:00 clear sky 27.655 27.655 27.655 60 2.61 m/h 0 %
08:00:00 clear sky 31.117 31.117 31.117 54 3.15 m/h 0 %
11:00:00 clear sky 36.569 36.569 36.569 37 2.89 m/h 0 %
14:00:00 clear sky 40.369 40.369 40.369 28 0.91 m/h 0 %
17:00:00 clear sky 39.323 39.323 39.323 27 1.93 m/h 0 %
20:00:00 clear sky 33.150 33.150 33.150 39 2.26 m/h 0 %
23:00:00 clear sky 30.969 30.969 30.969 50 2.67 m/h 0 %
25-Aug-2019 (Sun)
02:00:00 clear sky 29.331 29.331 29.331 57 2.46 m/h 0 %
05:00:00 clear sky 28.057 28.057 28.057 62 4.13 m/h 0 %
08:00:00 clear sky 31.014 31.014 31.014 58 5.09 m/h 0 %
11:00:00 clear sky 36.216 36.216 36.216 41 4.08 m/h 0 %
14:00:00 clear sky 39.150 39.150 39.150 31 2.72 m/h 0 %
17:00:00 clear sky 38.750 38.750 38.750 32 4 m/h 0 %
20:00:00 clear sky 32.881 32.881 32.881 52 4.63 m/h 0 %
23:00:00 clear sky 30.911 30.911 30.911 61 4.2 m/h 0 %
26-Aug-2019 (Mon)
02:00:00 clear sky 29.065 29.065 29.065 70 4.25 m/h 0 %
05:00:00 clear sky 26.950 26.950 26.950 77 4.86 m/h 0 %
08:00:00 clear sky 29.367 29.367 29.367 66 5.19 m/h 0 %
11:00:00 clear sky 35.572 35.572 35.572 44 4.93 m/h 0 %
14:00:00 overcast clouds 38.084 38.084 38.084 37 3.98 m/h 0 %
17:00:00 scattered clouds 37.220 37.220 37.220 37 3.57 m/h 0 %
20:00:00 clear sky 31.972 31.972 31.972 51 3.78 m/h 0 %
23:00:00 clear sky 30.514 30.514 30.514 54 3.18 m/h 0 %
27-Aug-2019 (Tue)
02:00:00 clear sky 28.816 28.816 28.816 61 2.26 m/h 0 %
05:00:00 scattered clouds 28.250 28.250 28.250 65 0.99 m/h 0 %
08:00:00 overcast clouds 31.535 31.535 31.535 57 3.09 m/h 0 %
11:00:00 scattered clouds 36.536 36.536 36.536 42 2.04 m/h 0 %
14:00:00 overcast clouds 38.836 38.836 38.836 34 2.06 m/h 0 %
17:00:00 broken clouds 38.465 38.465 38.465 33 2.51 m/h 0 %
20:00:00 few clouds 32.750 32.750 32.750 49 3.72 m/h 0 %
23:00:00 clear sky 31.050 31.050 31.050 55 2.51 m/h 0 %
28-Aug-2019 (Wed)
02:00:00 clear sky 29.857 29.857 29.857 59 2.26 m/h 0 %
05:00:00 few clouds 29.072 29.072 29.072 63 2.62 m/h 0 %

Famous Cities (61)